sensor_id;sensor_type;location;lat;lon;timestamp;P1;durP1;ratioP1;P2;durP2;ratioP2
22871;SDS011;11603;44.910;8.630;2022-09-01T00:00:32;9.57;;;4.72;;
22871;SDS011;11603;44.910;8.630;2022-09-01T00:02:58;6.78;;;4.20;;
22871;SDS011;11603;44.910;8.630;2022-09-01T00:05:23;5.95;;;4.85;;
22871;SDS011;11603;44.910;8.630;2022-09-01T00:07:49;8.70;;;4.38;;
22871;SDS011;11603;44.910;8.630;2022-09-01T00:10:14;7.13;;;5.03;;
22871;SDS011;11603;44.910;8.630;2022-09-01T00:12:40;7.30;;;5.00;;
22871;SDS011;11603;44.910;8.630;2022-09-01T00:15:08;9.77;;;4.90;;
22871;SDS011;11603;44.910;8.630;2022-09-01T00:17:34;6.07;;;4.68;;
22871;SDS011;11603;44.910;8.630;2022-09-01T00:20:00;9.88;;;6.70;;
22871;SDS011;11603;44.910;8.630;2022-09-01T00:22:26;10.60;;;9.05;;
22871;SDS011;11603;44.910;8.630;2022-09-01T00:24:52;8.13;;;6.35;;
22871;SDS011;11603;44.910;8.630;2022-09-01T00:27:18;8.07;;;6.35;;
22871;SDS011;11603;44.910;8.630;2022-09-01T00:29:43;8.55;;;5.72;;
22871;SDS011;11603;44.910;8.630;2022-09-01T00:32:09;11.98;;;8.20;;
22871;SDS011;11603;44.910;8.630;2022-09-01T00:34:34;16.25;;;10.73;;
22871;SDS011;11603;44.910;8.630;2022-09-01T00:37:00;12.80;;;11.32;;
22871;SDS011;11603;44.910;8.630;2022-09-01T00:39:25;15.07;;;11.93;;
22871;SDS011;11603;44.910;8.630;2022-09-01T00:41:51;16.35;;;11.65;;
22871;SDS011;11603;44.910;8.630;2022-09-01T00:44:17;15.20;;;12.60;;
22871;SDS011;11603;44.910;8.630;2022-09-01T00:46:48;17.52;;;12.25;;
22871;SDS011;11603;44.910;8.630;2022-09-01T00:49:17;18.60;;;13.48;;
22871;SDS011;11603;44.910;8.630;2022-09-01T00:51:52;16.70;;;14.45;;
22871;SDS011;11603;44.910;8.630;2022-09-01T00:54:21;18.05;;;14.90;;
22871;SDS011;11603;44.910;8.630;2022-09-01T00:56:50;15.70;;;13.95;;
22871;SDS011;11603;44.910;8.630;2022-09-01T00:59:17;19.67;;;15.05;;
22871;SDS011;11603;44.910;8.630;2022-09-01T01:01:47;17.85;;;15.63;;
22871;SDS011;11603;44.910;8.630;2022-09-01T01:04:13;21.42;;;15.82;;
22871;SDS011;11603;44.910;8.630;2022-09-01T01:06:43;16.08;;;13.30;;
22871;SDS011;11603;44.910;8.630;2022-09-01T01:09:17;16.75;;;15.00;;
22871;SDS011;11603;44.910;8.630;2022-09-01T01:11:46;16.88;;;14.00;;
22871;SDS011;11603;44.910;8.630;2022-09-01T01:14:13;20.27;;;15.52;;
22871;SDS011;11603;44.910;8.630;2022-09-01T01:16:42;20.73;;;16.25;;
22871;SDS011;11603;44.910;8.630;2022-09-01T01:22:07;17.42;;;15.48;;
22871;SDS011;11603;44.910;8.630;2022-09-01T01:24:55;16.00;;;14.27;;
22871;SDS011;11603;44.910;8.630;2022-09-01T01:27:23;20.15;;;15.02;;
22871;SDS011;11603;44.910;8.630;2022-09-01T01:29:49;19.00;;;15.82;;
22871;SDS011;11603;44.910;8.630;2022-09-01T01:32:18;19.23;;;15.80;;
22871;SDS011;11603;44.910;8.630;2022-09-01T01:34:44;12.93;;;11.63;;
22871;SDS011;11603;44.910;8.630;2022-09-01T01:37:11;17.52;;;13.77;;
22871;SDS011;11603;44.910;8.630;2022-09-01T01:39:42;20.40;;;15.77;;
22871;SDS011;11603;44.910;8.630;2022-09-01T01:42:08;20.48;;;16.10;;
22871;SDS011;11603;44.910;8.630;2022-09-01T01:44:35;16.67;;;14.90;;
22871;SDS011;11603;44.910;8.630;2022-09-01T01:47:04;18.77;;;14.88;;
22871;SDS011;11603;44.910;8.630;2022-09-01T01:49:37;15.63;;;14.07;;
22871;SDS011;11603;44.910;8.630;2022-09-01T01:52:08;19.77;;;16.10;;
22871;SDS011;11603;44.910;8.630;2022-09-01T01:54:41;22.08;;;17.00;;
22871;SDS011;11603;44.910;8.630;2022-09-01T01:57:10;16.38;;;13.60;;
22871;SDS011;11603;44.910;8.630;2022-09-01T01:59:41;17.42;;;15.45;;
22871;SDS011;11603;44.910;8.630;2022-09-01T02:02:07;18.85;;;16.50;;
22871;SDS011;11603;44.910;8.630;2022-09-01T02:04:34;13.80;;;12.32;;
22871;SDS011;11603;44.910;8.630;2022-09-01T02:07:11;21.17;;;16.40;;
22871;SDS011;11603;44.910;8.630;2022-09-01T02:09:37;12.13;;;10.52;;
22871;SDS011;11603;44.910;8.630;2022-09-01T02:12:05;15.43;;;13.18;;
22871;SDS011;11603;44.910;8.630;2022-09-01T02:14:33;13.65;;;12.23;;
22871;SDS011;11603;44.910;8.630;2022-09-01T02:16:58;12.48;;;11.18;;
22871;SDS011;11603;44.910;8.630;2022-09-01T02:19:26;15.90;;;12.55;;
22871;SDS011;11603;44.910;8.630;2022-09-01T02:21:52;15.77;;;14.18;;
22871;SDS011;11603;44.910;8.630;2022-09-01T02:24:20;10.95;;;9.35;;
22871;SDS011;11603;44.910;8.630;2022-09-01T02:26:48;16.30;;;14.23;;
22871;SDS011;11603;44.910;8.630;2022-09-01T02:29:25;17.88;;;16.08;;
22871;SDS011;11603;44.910;8.630;2022-09-01T02:31:53;20.13;;;15.40;;
22871;SDS011;11603;44.910;8.630;2022-09-01T02:34:20;18.67;;;16.63;;
22871;SDS011;11603;44.910;8.630;2022-09-01T02:36:50;17.02;;;15.15;;
22871;SDS011;11603;44.910;8.630;2022-09-01T02:39:22;19.17;;;15.80;;
22871;SDS011;11603;44.910;8.630;2022-09-01T02:41:50;16.13;;;14.48;;
22871;SDS011;11603;44.910;8.630;2022-09-01T02:44:22;17.52;;;14.85;;
22871;SDS011;11603;44.910;8.630;2022-09-01T02:46:48;16.23;;;14.52;;
22871;SDS011;11603;44.910;8.630;2022-09-01T02:49:20;15.55;;;12.73;;
22871;SDS011;11603;44.910;8.630;2022-09-01T02:51:55;14.02;;;12.07;;
22871;SDS011;11603;44.910;8.630;2022-09-01T02:54:25;16.33;;;14.63;;
22871;SDS011;11603;44.910;8.630;2022-09-01T02:56:52;19.00;;;16.02;;
22871;SDS011;11603;44.910;8.630;2022-09-01T02:59:21;19.23;;;17.23;;
22871;SDS011;11603;44.910;8.630;2022-09-01T03:01:49;18.45;;;16.30;;
22871;SDS011;11603;44.910;8.630;2022-09-01T03:04:18;18.25;;;15.00;;
22871;SDS011;11603;44.910;8.630;2022-09-01T03:06:46;20.23;;;15.30;;
22871;SDS011;11603;44.910;8.630;2022-09-01T03:09:13;14.43;;;12.75;;
22871;SDS011;11603;44.910;8.630;2022-09-01T03:11:43;18.08;;;16.00;;
22871;SDS011;11603;44.910;8.630;2022-09-01T03:14:11;19.83;;;17.05;;
22871;SDS011;11603;44.910;8.630;2022-09-01T03:16:38;20.20;;;18.05;;
22871;SDS011;11603;44.910;8.630;2022-09-01T03:19:05;18.48;;;16.58;;
22871;SDS011;11603;44.910;8.630;2022-09-01T03:21:38;14.90;;;12.75;;
22871;SDS011;11603;44.910;8.630;2022-09-01T03:24:06;15.75;;;13.63;;
22871;SDS011;11603;44.910;8.630;2022-09-01T03:26:33;18.77;;;16.77;;
22871;SDS011;11603;44.910;8.630;2022-09-01T03:29:00;17.17;;;14.95;;
22871;SDS011;11603;44.910;8.630;2022-09-01T03:31:27;14.77;;;13.02;;
22871;SDS011;11603;44.910;8.630;2022-09-01T03:33:55;20.13;;;14.02;;
22871;SDS011;11603;44.910;8.630;2022-09-01T03:36:29;17.95;;;16.02;;
22871;SDS011;11603;44.910;8.630;2022-09-01T03:38:58;21.48;;;17.25;;
22871;SDS011;11603;44.910;8.630;2022-09-01T03:41:26;18.92;;;16.92;;
22871;SDS011;11603;44.910;8.630;2022-09-01T03:43:53;21.33;;;18.80;;
22871;SDS011;11603;44.910;8.630;2022-09-01T03:46:21;20.42;;;18.23;;
22871;SDS011;11603;44.910;8.630;2022-09-01T03:48:48;17.13;;;15.32;;
22871;SDS011;11603;44.910;8.630;2022-09-01T03:51:15;20.73;;;17.65;;
22871;SDS011;11603;44.910;8.630;2022-09-01T03:53:41;22.15;;;18.77;;
22871;SDS011;11603;44.910;8.630;2022-09-01T03:56:07;22.90;;;17.63;;
22871;SDS011;11603;44.910;8.630;2022-09-01T03:58:34;22.40;;;18.40;;
22871;SDS011;11603;44.910;8.630;2022-09-01T04:01:00;20.27;;;17.23;;
22871;SDS011;11603;44.910;8.630;2022-09-01T04:03:27;22.58;;;18.52;;
22871;SDS011;11603;44.910;8.630;2022-09-01T04:05:57;22.25;;;17.50;;
22871;SDS011;11603;44.910;8.630;2022-09-01T04:08:24;20.42;;;17.95;;
22871;SDS011;11603;44.910;8.630;2022-09-01T04:10:57;19.98;;;17.88;;
22871;SDS011;11603;44.910;8.630;2022-09-01T04:13:29;20.48;;;17.38;;
22871;SDS011;11603;44.910;8.630;2022-09-01T04:15:58;21.35;;;19.05;;
22871;SDS011;11603;44.910;8.630;2022-09-01T04:18:24;21.25;;;17.50;;
22871;SDS011;11603;44.910;8.630;2022-09-01T04:20:51;19.00;;;16.88;;
22871;SDS011;11603;44.910;8.630;2022-09-01T04:23:28;19.42;;;17.23;;
22871;SDS011;11603;44.910;8.630;2022-09-01T04:26:03;21.70;;;19.45;;
22871;SDS011;11603;44.910;8.630;2022-09-01T04:28:38;20.90;;;17.10;;
22871;SDS011;11603;44.910;8.630;2022-09-01T04:31:07;25.52;;;19.08;;
22871;SDS011;11603;44.910;8.630;2022-09-01T04:33:36;23.42;;;19.50;;
22871;SDS011;11603;44.910;8.630;2022-09-01T04:36:05;19.48;;;15.52;;
22871;SDS011;11603;44.910;8.630;2022-09-01T04:38:52;14.30;;;12.25;;
22871;SDS011;11603;44.910;8.630;2022-09-01T04:41:22;20.85;;;17.92;;
22871;SDS011;11603;44.910;8.630;2022-09-01T04:43:51;20.30;;;18.13;;
22871;SDS011;11603;44.910;8.630;2022-09-01T04:46:21;23.80;;;19.73;;
22871;SDS011;11603;44.910;8.630;2022-09-01T04:48:53;22.00;;;19.67;;
22871;SDS011;11603;44.910;8.630;2022-09-01T04:51:20;25.92;;;20.02;;
22871;SDS011;11603;44.910;8.630;2022-09-01T04:53:53;27.80;;;19.38;;
22871;SDS011;11603;44.910;8.630;2022-09-01T04:56:21;23.65;;;20.40;;
22871;SDS011;11603;44.910;8.630;2022-09-01T04:59:05;26.20;;;21.13;;
22871;SDS011;11603;44.910;8.630;2022-09-01T05:01:33;24.63;;;20.40;;
22871;SDS011;11603;44.910;8.630;2022-09-01T05:04:18;23.85;;;20.95;;
22871;SDS011;11603;44.910;8.630;2022-09-01T05:06:48;24.80;;;21.02;;
22871;SDS011;11603;44.910;8.630;2022-09-01T05:09:18;23.95;;;21.17;;
22871;SDS011;11603;44.910;8.630;2022-09-01T05:12:09;22.77;;;20.33;;
22871;SDS011;11603;44.910;8.630;2022-09-01T05:14:41;22.63;;;20.23;;
22871;SDS011;11603;44.910;8.630;2022-09-01T05:17:11;27.77;;;21.13;;
22871;SDS011;11603;44.910;8.630;2022-09-01T05:19:42;22.77;;;19.92;;
22871;SDS011;11603;44.910;8.630;2022-09-01T05:22:10;23.27;;;19.80;;
22871;SDS011;11603;44.910;8.630;2022-09-01T05:24:41;22.13;;;18.50;;
22871;SDS011;11603;44.910;8.630;2022-09-01T05:27:08;23.67;;;17.48;;
22871;SDS011;11603;44.910;8.630;2022-09-01T05:29:35;24.73;;;18.70;;
22871;SDS011;11603;44.910;8.630;2022-09-01T05:32:04;23.90;;;17.13;;
22871;SDS011;11603;44.910;8.630;2022-09-01T05:34:34;20.20;;;17.85;;
22871;SDS011;11603;44.910;8.630;2022-09-01T05:37:04;20.92;;;17.83;;
22871;SDS011;11603;44.910;8.630;2022-09-01T05:39:34;20.33;;;17.98;;
22871;SDS011;11603;44.910;8.630;2022-09-01T05:42:02;19.38;;;17.00;;
22871;SDS011;11603;44.910;8.630;2022-09-01T05:44:32;20.98;;;18.20;;
22871;SDS011;11603;44.910;8.630;2022-09-01T05:46:58;18.65;;;14.23;;
22871;SDS011;11603;44.910;8.630;2022-09-01T05:49:26;22.77;;;16.48;;
22871;SDS011;11603;44.910;8.630;2022-09-01T05:51:53;20.85;;;16.23;;
22871;SDS011;11603;44.910;8.630;2022-09-01T05:54:24;20.40;;;17.00;;
22871;SDS011;11603;44.910;8.630;2022-09-01T05:56:54;22.75;;;16.02;;
22871;SDS011;11603;44.910;8.630;2022-09-01T05:59:26;18.85;;;14.98;;
22871;SDS011;11603;44.910;8.630;2022-09-01T06:02:08;21.52;;;14.13;;
22871;SDS011;11603;44.910;8.630;2022-09-01T06:04:36;17.48;;;13.85;;
22871;SDS011;11603;44.910;8.630;2022-09-01T06:07:12;27.38;;;14.40;;
22871;SDS011;11603;44.910;8.630;2022-09-01T06:09:44;19.42;;;14.52;;
22871;SDS011;11603;44.910;8.630;2022-09-01T06:12:13;22.23;;;14.45;;
22871;SDS011;11603;44.910;8.630;2022-09-01T06:14:46;19.25;;;14.43;;
22871;SDS011;11603;44.910;8.630;2022-09-01T06:17:14;17.30;;;14.35;;
22871;SDS011;11603;44.910;8.630;2022-09-01T06:19:44;20.30;;;14.48;;
22871;SDS011;11603;44.910;8.630;2022-09-01T06:22:11;20.85;;;15.57;;
22871;SDS011;11603;44.910;8.630;2022-09-01T06:24:37;15.52;;;13.40;;
22871;SDS011;11603;44.910;8.630;2022-09-01T06:27:06;16.75;;;13.18;;
22871;SDS011;11603;44.910;8.630;2022-09-01T06:29:36;16.80;;;13.10;;
22871;SDS011;11603;44.910;8.630;2022-09-01T06:32:05;16.48;;;13.45;;
22871;SDS011;11603;44.910;8.630;2022-09-01T06:34:35;20.23;;;14.15;;
22871;SDS011;11603;44.910;8.630;2022-09-01T06:37:03;12.48;;;10.98;;
22871;SDS011;11603;44.910;8.630;2022-09-01T06:39:30;19.17;;;13.88;;
22871;SDS011;11603;44.910;8.630;2022-09-01T06:41:56;17.65;;;13.10;;
22871;SDS011;11603;44.910;8.630;2022-09-01T06:44:31;14.80;;;8.77;;
22871;SDS011;11603;44.910;8.630;2022-09-01T06:47:02;17.98;;;13.77;;
22871;SDS011;11603;44.910;8.630;2022-09-01T06:49:29;18.40;;;14.35;;
22871;SDS011;11603;44.910;8.630;2022-09-01T06:52:00;17.40;;;13.07;;
22871;SDS011;11603;44.910;8.630;2022-09-01T06:54:28;16.17;;;13.25;;
22871;SDS011;11603;44.910;8.630;2022-09-01T06:57:03;18.00;;;14.32;;
22871;SDS011;11603;44.910;8.630;2022-09-01T06:59:29;18.70;;;14.63;;
22871;SDS011;11603;44.910;8.630;2022-09-01T07:01:57;20.25;;;14.48;;
22871;SDS011;11603;44.910;8.630;2022-09-01T07:04:30;19.63;;;12.52;;
22871;SDS011;11603;44.910;8.630;2022-09-01T07:07:00;21.38;;;16.35;;
22871;SDS011;11603;44.910;8.630;2022-09-01T07:09:37;23.95;;;19.42;;
22871;SDS011;11603;44.910;8.630;2022-09-01T07:12:23;24.83;;;19.58;;
22871;SDS011;11603;44.910;8.630;2022-09-01T07:14:49;23.23;;;16.35;;
22871;SDS011;11603;44.910;8.630;2022-09-01T07:17:14;24.05;;;19.35;;
22871;SDS011;11603;44.910;8.630;2022-09-01T07:19:41;24.83;;;20.65;;
22871;SDS011;11603;44.910;8.630;2022-09-01T07:22:07;30.23;;;22.05;;
22871;SDS011;11603;44.910;8.630;2022-09-01T07:24:34;26.80;;;21.65;;
22871;SDS011;11603;44.910;8.630;2022-09-01T07:27:26;24.77;;;19.90;;
22871;SDS011;11603;44.910;8.630;2022-09-01T07:29:53;21.88;;;16.08;;
22871;SDS011;11603;44.910;8.630;2022-09-01T07:32:21;21.17;;;16.58;;
22871;SDS011;11603;44.910;8.630;2022-09-01T07:34:47;22.55;;;16.92;;
22871;SDS011;11603;44.910;8.630;2022-09-01T07:37:13;21.20;;;14.75;;
22871;SDS011;11603;44.910;8.630;2022-09-01T07:39:40;23.33;;;19.10;;
22871;SDS011;11603;44.910;8.630;2022-09-01T07:42:41;24.48;;;18.23;;
22871;SDS011;11603;44.910;8.630;2022-09-01T07:45:20;23.15;;;16.83;;
22871;SDS011;11603;44.910;8.630;2022-09-01T07:47:59;21.58;;;17.70;;
22871;SDS011;11603;44.910;8.630;2022-09-01T07:50:35;19.70;;;12.57;;
22871;SDS011;11603;44.910;8.630;2022-09-01T07:53:02;20.52;;;16.25;;
22871;SDS011;11603;44.910;8.630;2022-09-01T07:55:29;21.65;;;16.90;;
22871;SDS011;11603;44.910;8.630;2022-09-01T07:57:57;19.77;;;15.40;;
22871;SDS011;11603;44.910;8.630;2022-09-01T08:00:25;19.58;;;15.85;;
22871;SDS011;11603;44.910;8.630;2022-09-01T08:02:57;26.42;;;19.83;;
22871;SDS011;11603;44.910;8.630;2022-09-01T08:05:23;30.10;;;19.67;;
22871;SDS011;11603;44.910;8.630;2022-09-01T08:07:51;16.05;;;12.60;;
22871;SDS011;11603;44.910;8.630;2022-09-01T08:10:20;19.67;;;15.85;;
22871;SDS011;11603;44.910;8.630;2022-09-01T08:12:48;14.18;;;11.40;;
22871;SDS011;11603;44.910;8.630;2022-09-01T08:15:14;22.98;;;15.75;;
22871;SDS011;11603;44.910;8.630;2022-09-01T08:17:43;38.50;;;18.27;;
22871;SDS011;11603;44.910;8.630;2022-09-01T08:20:11;23.80;;;19.58;;
22871;SDS011;11603;44.910;8.630;2022-09-01T08:22:49;22.20;;;18.45;;
22871;SDS011;11603;44.910;8.630;2022-09-01T08:25:19;28.52;;;20.30;;
22871;SDS011;11603;44.910;8.630;2022-09-01T08:27:44;24.33;;;18.40;;
22871;SDS011;11603;44.910;8.630;2022-09-01T08:30:10;25.08;;;19.67;;
22871;SDS011;11603;44.910;8.630;2022-09-01T08:32:40;26.70;;;20.48;;
22871;SDS011;11603;44.910;8.630;2022-09-01T08:35:09;25.20;;;19.48;;
22871;SDS011;11603;44.910;8.630;2022-09-01T08:37:36;25.73;;;18.40;;
22871;SDS011;11603;44.910;8.630;2022-09-01T08:40:03;21.10;;;16.55;;
22871;SDS011;11603;44.910;8.630;2022-09-01T08:47:56;28.38;;;20.35;;
22871;SDS011;11603;44.910;8.630;2022-09-01T08:50:32;27.75;;;19.63;;
22871;SDS011;11603;44.910;8.630;2022-09-01T08:53:30;37.55;;;22.20;;
22871;SDS011;11603;44.910;8.630;2022-09-01T08:56:01;34.55;;;23.45;;
22871;SDS011;11603;44.910;8.630;2022-09-01T08:58:27;31.50;;;23.52;;
22871;SDS011;11603;44.910;8.630;2022-09-01T09:01:28;33.72;;;24.10;;
22871;SDS011;11603;44.910;8.630;2022-09-01T09:04:10;37.92;;;24.92;;
22871;SDS011;11603;44.910;8.630;2022-09-01T09:09:19;34.20;;;24.42;;
22871;SDS011;11603;44.910;8.630;2022-09-01T09:14:19;32.50;;;23.92;;
22871;SDS011;11603;44.910;8.630;2022-09-01T09:16:51;31.67;;;22.00;;
22871;SDS011;11603;44.910;8.630;2022-09-01T09:19:38;29.17;;;21.95;;
22871;SDS011;11603;44.910;8.630;2022-09-01T09:22:09;28.98;;;22.95;;
22871;SDS011;11603;44.910;8.630;2022-09-01T09:27:21;25.35;;;20.27;;
22871;SDS011;11603;44.910;8.630;2022-09-01T09:29:59;29.25;;;21.98;;
22871;SDS011;11603;44.910;8.630;2022-09-01T09:32:41;28.23;;;21.20;;
22871;SDS011;11603;44.910;8.630;2022-09-01T09:35:21;28.10;;;21.65;;
22871;SDS011;11603;44.910;8.630;2022-09-01T09:37:52;32.38;;;23.35;;
22871;SDS011;11603;44.910;8.630;2022-09-01T09:40:19;29.85;;;22.92;;
22871;SDS011;11603;44.910;8.630;2022-09-01T09:45:21;24.90;;;20.05;;
22871;SDS011;11603;44.910;8.630;2022-09-01T09:47:58;22.40;;;17.80;;
22871;SDS011;11603;44.910;8.630;2022-09-01T09:53:24;25.98;;;20.45;;
22871;SDS011;11603;44.910;8.630;2022-09-01T09:58:49;15.90;;;12.93;;
22871;SDS011;11603;44.910;8.630;2022-09-01T10:04:07;25.88;;;20.17;;
22871;SDS011;11603;44.910;8.630;2022-09-01T10:06:43;26.80;;;19.98;;
22871;SDS011;11603;44.910;8.630;2022-09-01T10:09:55;27.88;;;22.02;;
22871;SDS011;11603;44.910;8.630;2022-09-01T10:12:02;25.83;;;21.70;;
22871;SDS011;11603;44.910;8.630;2022-09-01T10:14:49;21.17;;;16.17;;
22871;SDS011;11603;44.910;8.630;2022-09-01T10:17:27;23.00;;;20.60;;
22871;SDS011;11603;44.910;8.630;2022-09-01T10:19:58;25.13;;;21.45;;
22871;SDS011;11603;44.910;8.630;2022-09-01T10:22:29;26.52;;;22.45;;
22871;SDS011;11603;44.910;8.630;2022-09-01T10:24:56;41.67;;;21.80;;
22871;SDS011;11603;44.910;8.630;2022-09-01T10:27:25;29.95;;;23.13;;
22871;SDS011;11603;44.910;8.630;2022-09-01T10:29:59;23.65;;;19.83;;
22871;SDS011;11603;44.910;8.630;2022-09-01T10:32:35;26.02;;;23.27;;
22871;SDS011;11603;44.910;8.630;2022-09-01T10:35:07;24.98;;;22.27;;
22871;SDS011;11603;44.910;8.630;2022-09-01T10:37:38;25.45;;;21.33;;
22871;SDS011;11603;44.910;8.630;2022-09-01T10:40:12;22.02;;;19.80;;
22871;SDS011;11603;44.910;8.630;2022-09-01T10:42:38;24.13;;;19.80;;
22871;SDS011;11603;44.910;8.630;2022-09-01T10:45:14;23.33;;;20.55;;
22871;SDS011;11603;44.910;8.630;2022-09-01T10:50:46;13.13;;;11.23;;
22871;SDS011;11603;44.910;8.630;2022-09-01T10:56:17;10.65;;;9.55;;
22871;SDS011;11603;44.910;8.630;2022-09-01T11:01:13;15.18;;;11.93;;
22871;SDS011;11603;44.910;8.630;2022-09-01T11:07:03;14.63;;;13.13;;
22871;SDS011;11603;44.910;8.630;2022-09-01T11:09:05;11.25;;;10.05;;
22871;SDS011;11603;44.910;8.630;2022-09-01T11:11:48;10.40;;;7.68;;
22871;SDS011;11603;44.910;8.630;2022-09-01T11:14:19;8.52;;;6.50;;
22871;SDS011;11603;44.910;8.630;2022-09-01T11:22:20;12.70;;;8.15;;
22871;SDS011;11603;44.910;8.630;2022-09-01T11:30:17;6.97;;;5.03;;
22871;SDS011;11603;44.910;8.630;2022-09-01T11:32:46;9.55;;;6.32;;
22871;SDS011;11603;44.910;8.630;2022-09-01T11:35:17;7.05;;;5.35;;
22871;SDS011;11603;44.910;8.630;2022-09-01T11:37:48;9.43;;;4.90;;
22871;SDS011;11603;44.910;8.630;2022-09-01T11:40:22;6.80;;;5.18;;
22871;SDS011;11603;44.910;8.630;2022-09-01T11:42:51;5.70;;;4.82;;
22871;SDS011;11603;44.910;8.630;2022-09-01T11:45:22;5.40;;;3.80;;
22871;SDS011;11603;44.910;8.630;2022-09-01T11:47:49;6.88;;;3.92;;
22871;SDS011;11603;44.910;8.630;2022-09-01T11:50:20;4.32;;;3.47;;
22871;SDS011;11603;44.910;8.630;2022-09-01T11:52:51;3.50;;;3.20;;
22871;SDS011;11603;44.910;8.630;2022-09-01T11:55:32;4.18;;;3.35;;
22871;SDS011;11603;44.910;8.630;2022-09-01T11:58:01;5.45;;;4.68;;
22871;SDS011;11603;44.910;8.630;2022-09-01T12:00:32;11.77;;;4.03;;
22871;SDS011;11603;44.910;8.630;2022-09-01T12:03:03;4.88;;;3.70;;
22871;SDS011;11603;44.910;8.630;2022-09-01T12:05:32;6.32;;;3.42;;
22871;SDS011;11603;44.910;8.630;2022-09-01T12:08:03;7.75;;;3.10;;
22871;SDS011;11603;44.910;8.630;2022-09-01T12:10:38;3.97;;;2.72;;
22871;SDS011;11603;44.910;8.630;2022-09-01T12:13:08;4.43;;;3.88;;
22871;SDS011;11603;44.910;8.630;2022-09-01T12:15:41;6.05;;;3.80;;
22871;SDS011;11603;44.910;8.630;2022-09-01T12:18:12;5.38;;;3.03;;
22871;SDS011;11603;44.910;8.630;2022-09-01T12:20:38;4.88;;;3.67;;
22871;SDS011;11603;44.910;8.630;2022-09-01T12:23:14;5.78;;;3.58;;
22871;SDS011;11603;44.910;8.630;2022-09-01T12:25:40;4.97;;;3.33;;
22871;SDS011;11603;44.910;8.630;2022-09-01T12:28:06;6.95;;;4.18;;
22871;SDS011;11603;44.910;8.630;2022-09-01T12:30:32;7.80;;;4.20;;
22871;SDS011;11603;44.910;8.630;2022-09-01T12:33:04;5.53;;;3.95;;
22871;SDS011;11603;44.910;8.630;2022-09-01T12:35:32;7.07;;;4.20;;
22871;SDS011;11603;44.910;8.630;2022-09-01T12:40:50;5.47;;;3.40;;
22871;SDS011;11603;44.910;8.630;2022-09-01T12:43:28;4.10;;;2.83;;
22871;SDS011;11603;44.910;8.630;2022-09-01T12:45:59;5.57;;;3.40;;
22871;SDS011;11603;44.910;8.630;2022-09-01T12:48:39;3.42;;;3.13;;
22871;SDS011;11603;44.910;8.630;2022-09-01T12:51:26;4.22;;;3.03;;
22871;SDS011;11603;44.910;8.630;2022-09-01T12:56:19;3.90;;;2.75;;
22871;SDS011;11603;44.910;8.630;2022-09-01T12:58:51;9.60;;;3.20;;
22871;SDS011;11603;44.910;8.630;2022-09-01T13:01:33;4.53;;;2.47;;
22871;SDS011;11603;44.910;8.630;2022-09-01T13:04:13;3.22;;;2.78;;
22871;SDS011;11603;44.910;8.630;2022-09-01T13:06:48;3.85;;;2.33;;
22871;SDS011;11603;44.910;8.630;2022-09-01T13:09:15;3.97;;;2.70;;
22871;SDS011;11603;44.910;8.630;2022-09-01T13:11:41;4.68;;;2.50;;
22871;SDS011;11603;44.910;8.630;2022-09-01T13:14:07;3.00;;;2.45;;
22871;SDS011;11603;44.910;8.630;2022-09-01T13:16:33;2.50;;;2.17;;
22871;SDS011;11603;44.910;8.630;2022-09-01T13:19:01;7.32;;;3.05;;
22871;SDS011;11603;44.910;8.630;2022-09-01T13:21:27;4.95;;;2.53;;
22871;SDS011;11603;44.910;8.630;2022-09-01T13:36:54;3.22;;;2.30;;
22871;SDS011;11603;44.910;8.630;2022-09-01T13:43:35;3.13;;;2.03;;
22871;SDS011;11603;44.910;8.630;2022-09-01T13:46:06;3.47;;;2.40;;
22871;SDS011;11603;44.910;8.630;2022-09-01T13:48:38;5.38;;;2.42;;
22871;SDS011;11603;44.910;8.630;2022-09-01T14:04:49;2.75;;;2.38;;
22871;SDS011;11603;44.910;8.630;2022-09-01T14:08:22;7.60;;;2.15;;
22871;SDS011;11603;44.910;8.630;2022-09-01T14:18:23;2.92;;;2.40;;
22871;SDS011;11603;44.910;8.630;2022-09-01T14:21:14;3.05;;;2.60;;
22871;SDS011;11603;44.910;8.630;2022-09-01T14:24:33;4.75;;;2.70;;
22871;SDS011;11603;44.910;8.630;2022-09-01T14:30:20;4.70;;;2.70;;
22871;SDS011;11603;44.910;8.630;2022-09-01T14:32:48;3.00;;;2.30;;
22871;SDS011;11603;44.910;8.630;2022-09-01T14:35:15;4.85;;;2.08;;
22871;SDS011;11603;44.910;8.630;2022-09-01T14:37:43;2.45;;;2.03;;
22871;SDS011;11603;44.910;8.630;2022-09-01T14:57:45;3.40;;;1.85;;
22871;SDS011;11603;44.910;8.630;2022-09-01T15:05:07;2.50;;;2.30;;
22871;SDS011;11603;44.910;8.630;2022-09-01T15:07:33;3.00;;;2.13;;
22871;SDS011;11603;44.910;8.630;2022-09-01T15:09:59;3.65;;;1.83;;
22871;SDS011;11603;44.910;8.630;2022-09-01T15:12:25;4.50;;;2.35;;
22871;SDS011;11603;44.910;8.630;2022-09-01T15:14:55;2.65;;;2.00;;
22871;SDS011;11603;44.910;8.630;2022-09-01T15:17:21;3.10;;;1.98;;
22871;SDS011;11603;44.910;8.630;2022-09-01T15:19:48;2.03;;;1.83;;
22871;SDS011;11603;44.910;8.630;2022-09-01T15:22:13;3.95;;;2.00;;
22871;SDS011;11603;44.910;8.630;2022-09-01T15:24:40;2.55;;;1.95;;
22871;SDS011;11603;44.910;8.630;2022-09-01T15:27:06;4.55;;;1.88;;
22871;SDS011;11603;44.910;8.630;2022-09-01T15:29:33;3.45;;;2.05;;
22871;SDS011;11603;44.910;8.630;2022-09-01T15:31:59;2.13;;;1.90;;
22871;SDS011;11603;44.910;8.630;2022-09-01T15:34:26;2.53;;;2.00;;
22871;SDS011;11603;44.910;8.630;2022-09-01T15:42:25;2.28;;;2.10;;
22871;SDS011;11603;44.910;8.630;2022-09-01T15:50:16;3.28;;;1.83;;
22871;SDS011;11603;44.910;8.630;2022-09-01T15:53:56;3.50;;;1.65;;
22871;SDS011;11603;44.910;8.630;2022-09-01T16:02:51;3.35;;;1.50;;
22871;SDS011;11603;44.910;8.630;2022-09-01T17:22:56;8.40;;;1.48;;
22871;SDS011;11603;44.910;8.630;2022-09-01T17:30:14;1.85;;;1.20;;
22871;SDS011;11603;44.910;8.630;2022-09-01T17:35:28;3.45;;;1.10;;
22871;SDS011;11603;44.910;8.630;2022-09-01T17:40:51;0.90;;;0.90;;
22871;SDS011;11603;44.910;8.630;2022-09-01T17:43:25;2.83;;;1.20;;
22871;SDS011;11603;44.910;8.630;2022-09-01T17:49:17;5.53;;;0.98;;
22871;SDS011;11603;44.910;8.630;2022-09-01T17:57:31;3.03;;;1.20;;
22871;SDS011;11603;44.910;8.630;2022-09-01T18:00:06;3.42;;;1.40;;
22871;SDS011;11603;44.910;8.630;2022-09-01T18:02:52;3.05;;;1.33;;
22871;SDS011;11603;44.910;8.630;2022-09-01T18:05:42;5.72;;;1.25;;
22871;SDS011;11603;44.910;8.630;2022-09-01T18:08:41;1.10;;;1.00;;
22871;SDS011;11603;44.910;8.630;2022-09-01T19:05:25;2.15;;;1.20;;
22871;SDS011;11603;44.910;8.630;2022-09-01T19:19:19;6.72;;;0.93;;
22871;SDS011;11603;44.910;8.630;2022-09-01T19:21:54;2.83;;;1.02;;
22871;SDS011;11603;44.910;8.630;2022-09-01T19:27:29;1.27;;;0.70;;
22871;SDS011;11603;44.910;8.630;2022-09-01T19:30:00;4.53;;;0.93;;
22871;SDS011;11603;44.910;8.630;2022-09-01T20:01:01;3.08;;;1.30;;
22871;SDS011;11603;44.910;8.630;2022-09-01T21:19:02;4.30;;;1.10;;
22871;SDS011;11603;44.910;8.630;2022-09-01T21:24:28;4.53;;;1.05;;
22871;SDS011;11603;44.910;8.630;2022-09-01T21:32:25;1.65;;;1.20;;
22871;SDS011;11603;44.910;8.630;2022-09-01T21:35:58;2.03;;;1.00;;
22871;SDS011;11603;44.910;8.630;2022-09-01T21:42:02;4.15;;;1.10;;
22871;SDS011;11603;44.910;8.630;2022-09-01T21:56:14;3.42;;;1.15;;
22871;SDS011;11603;44.910;8.630;2022-09-01T22:13:33;5.47;;;1.30;;
22871;SDS011;11603;44.910;8.630;2022-09-01T22:16:57;2.17;;;1.10;;
22871;SDS011;11603;44.910;8.630;2022-09-01T22:23:32;4.93;;;1.38;;